Time;durP1;ratioP1;P1;durP2;ratioP2;P2;SDS_P1;SDS_P2;PMS_P1;PMS_P2;Temp;Humidity;BMP_temperature;BMP_pressure;BME280_temperature;BME280_humidity;BME280_pressure;Samples;Min_cycle;Max_cycle;Signal;HPM_P1;HPM_P2
2022/06/05 00:02:42;;;;;;;;;;;;;;;17.02;71.88;98198.16;5089394;28;19924;-53
2022/06/05 00:05:36;;;;;;;;;;;;;;;17.04;71.82;98198.59;5098508;28;20390;-52
2022/06/05 00:08:27;;;;;;;;;;;;;;;17.32;70.72;98201.41;5096606;28;20408;-52
2022/06/05 00:11:16;;;;;;;;;;;;;;;16.96;72.01;98202.28;5098431;28;20415;-51
2022/06/05 00:14:04;;;;;;;;;;;;;;;16.92;72.11;98212.34;5100725;28;19920;-52
2022/06/05 00:16:53;;;;;;;;;;;;;;;16.92;71.81;98204.13;5095375;28;20280;-48
2022/06/05 00:19:46;;;;;;;;;;;;;;;16.82;72.33;98191.66;5095470;28;20140;-52
2022/06/05 00:23:00;;;;;;;;;;;;;;;16.80;72.27;98180.25;5090763;28;20003;-53
2022/06/05 00:25:51;;;;;;;;;;;;;;;16.75;72.45;98178.53;5089793;28;20269;-52
2022/06/05 00:28:40;;;;;;;;;;;;;;;16.69;72.45;98188.13;5094832;28;19962;-53
2022/06/05 00:31:32;;;;;;;;;;;;;;;16.73;72.41;98180.03;5094797;28;20348;-53
2022/06/05 00:34:21;;;;;;;;;;;;;;;16.79;72.10;98186.09;5091049;28;20393;-53
2022/06/05 00:37:17;;;;;;;;;;;;;;;16.72;72.33;98190.22;5094913;28;19924;-53
2022/06/05 00:40:11;;;;;;;;;;;;;;;16.66;72.26;98177.03;5095498;28;19945;-52
2022/06/05 00:42:59;;;;;;;;;;;;;;;16.64;72.49;98179.31;5099466;28;19920;-53
2022/06/05 00:45:48;;;;;;;;;;;;;;;16.65;72.06;98162.50;5096197;28;20526;-53
2022/06/05 00:48:36;;;;;;;;;;;;;;;16.85;71.54;98157.25;5096013;28;19931;-54
2022/06/05 00:51:25;;;;;;;;;;;;;;;16.61;72.50;98167.09;5099269;28;19924;-54
2022/06/05 00:54:18;;;;;;;;;;;;;;;16.53;72.59;98165.28;5096008;28;19978;-54
2022/06/05 00:57:08;;;;;;;;;;;;;;;16.60;72.60;98162.75;5095423;27;20001;-53
2022/06/05 01:00:21;;;;;;;;;;;;;;;16.55;72.56;98170.41;5098194;28;19919;-53
2022/06/05 01:03:11;;;;;;;;;;;;;;;16.57;72.59;98176.38;5093477;28;19934;-52
2022/06/05 01:06:02;;;;;;;;;;;;;;;16.55;72.54;98179.44;5080817;28;19924;-54
2022/06/05 01:08:54;;;;;;;;;;;;;;;16.56;72.23;98170.06;5085721;28;19923;-53
2022/06/05 01:11:47;;;;;;;;;;;;;;;16.65;71.86;98164.47;5087210;28;20156;-52
2022/06/05 01:14:38;;;;;;;;;;;;;;;16.62;72.08;98148.69;5088681;28;19927;-52
2022/06/05 01:17:36;;;;;;;;;;;;;;;16.57;72.14;98141.50;5088743;28;19928;-52
2022/06/05 01:20:34;;;;;;;;;;;;;;;16.54;72.10;98144.13;5092495;28;19920;-50
2022/06/05 01:23:27;;;;;;;;;;;;;;;16.60;71.82;98143.53;5096099;28;20228;-47
2022/06/05 01:26:21;;;;;;;;;;;;;;;16.58;71.98;98140.34;5087129;28;19942;-53
2022/06/05 01:29:11;;;;;;;;;;;;;;;16.48;72.10;98132.59;5097478;28;19924;-51
2022/06/05 01:32:03;;;;;;;;;;;;;;;16.53;71.96;98132.38;5096343;28;20016;-50
2022/06/05 01:34:53;;;;;;;;;;;;;;;16.50;72.08;98128.34;5090903;28;19932;-52
2022/06/05 01:38:07;;;;;;;;;;;;;;;16.45;72.03;98133.28;5089138;28;19919;-52
2022/06/05 01:40:56;;;;;;;;;;;;;;;16.60;71.51;98148.25;5095415;28;20319;-55
2022/06/05 01:43:48;;;;;;;;;;;;;;;16.47;72.08;98139.22;5094558;28;19924;-52
2022/06/05 01:46:38;;;;;;;;;;;;;;;16.42;72.14;98139.47;5093130;28;19920;-52
2022/06/05 01:49:28;;;;;;;;;;;;;;;16.41;72.01;98137.88;5093116;28;19919;-53
2022/06/05 01:52:20;;;;;;;;;;;;;;;16.71;70.83;98127.44;5093881;28;20313;-49
2022/06/05 01:55:09;;;;;;;;;;;;;;;16.37;71.93;98123.25;5098132;28;19927;-51
2022/06/05 01:57:59;;;;;;;;;;;;;;;16.35;72.17;98122.78;5094267;28;19934;-52
2022/06/05 02:00:49;;;;;;;;;;;;;;;16.24;72.40;98131.47;5097637;28;20360;-50
2022/06/05 02:03:38;;;;;;;;;;;;;;;16.21;72.20;98126.66;5095990;28;19939;-52
2022/06/05 02:06:28;;;;;;;;;;;;;;;16.30;72.04;98123.00;5095406;28;19920;-54
2022/06/05 02:09:17;;;;;;;;;;;;;;;16.22;72.12;98128.25;5097511;28;19947;-53
2022/06/05 02:12:06;;;;;;;;;;;;;;;16.16;72.49;98132.38;5099628;28;19931;-52
2022/06/05 02:14:54;;;;;;;;;;;;;;;16.16;72.53;98128.84;5094663;28;20364;-53
2022/06/05 02:17:45;;;;;;;;;;;;;;;16.26;72.15;98117.41;5088904;28;20316;-52
2022/06/05 02:24:12;;;;;;;;;;;;;;;16.22;72.36;98100.06;5091992;28;19919;-53
2022/06/05 02:27:01;;;;;;;;;;;;;;;16.26;72.36;98094.69;5085695;28;19927;-53
2022/06/05 02:30:04;;;;;;;;;;;;;;;16.18;72.25;98091.72;5096526;28;19924;-49
2022/06/05 02:32:57;;;;;;;;;;;;;;;16.28;71.98;98075.94;5097084;28;19920;-47
2022/06/05 02:35:50;;;;;;;;;;;;;;;16.31;71.75;98075.28;5099188;28;19972;-53
2022/06/05 02:38:42;;;;;;;;;;;;;;;16.07;72.51;98065.91;5059162;28;20315;-53
2022/06/05 02:41:33;;;;;;;;;;;;;;;16.03;72.73;98061.47;5057127;28;20246;-54
2022/06/05 02:44:29;;;;;;;;;;;;;;;16.01;72.80;98056.31;5057104;28;19924;-53
2022/06/05 02:47:19;;;;;;;;;;;;;;;15.92;73.05;98042.72;5053977;28;20243;-52
2022/06/05 02:50:11;;;;;;;;;;;;;;;15.96;73.25;98059.28;5051996;28;20554;-53
2022/06/05 02:53:00;;;;;;;;;;;;;;;16.03;73.16;98054.03;5055930;28;20205;-53
2022/06/05 02:55:49;;;;;;;;;;;;;;;16.05;73.15;98056.44;5048419;28;19936;-52
2022/06/05 02:58:39;;;;;;;;;;;;;;;15.97;73.36;98045.25;5055260;28;19981;-52
2022/06/05 03:04:33;;;;;;;;;;;;;;;16.09;73.03;98036.25;5060382;28;19920;-53
2022/06/05 03:07:24;;;;;;;;;;;;;;;16.05;73.02;98038.06;5060427;28;19927;-52
2022/06/05 03:10:13;;;;;;;;;;;;;;;16.12;72.87;98040.22;5055488;28;20423;-51
2022/06/05 03:13:02;;;;;;;;;;;;;;;16.15;73.04;98025.84;5051975;28;19921;-52
2022/06/05 03:15:51;;;;;;;;;;;;;;;16.32;72.39;98031.06;5062126;28;20348;-52
2022/06/05 03:18:40;;;;;;;;;;;;;;;16.27;72.50;98035.97;5057703;28;19974;-53
2022/06/05 03:21:30;;;;;;;;;;;;;;;16.16;72.67;98021.94;5060174;28;19924;-51
2022/06/05 03:24:20;;;;;;;;;;;;;;;16.24;72.73;98023.75;5059637;28;19925;-53
2022/06/05 03:27:09;;;;;;;;;;;;;;;16.24;72.70;98016.34;5060921;28;20368;-53
2022/06/05 03:30:03;;;;;;;;;;;;;;;16.20;72.79;98015.44;5060604;28;20284;-51
2022/06/05 03:32:53;;;;;;;;;;;;;;;16.07;73.13;98011.09;5061370;28;20247;-53
2022/06/05 03:35:43;;;;;;;;;;;;;;;16.11;73.49;98020.25;5057784;28;19928;-52
2022/06/05 03:38:57;;;;;;;;;;;;;;;16.09;73.30;98013.50;5051257;28;19960;-52
2022/06/05 03:41:47;;;;;;;;;;;;;;;16.14;73.22;98010.50;5051884;28;19929;-52
2022/06/05 03:44:36;;;;;;;;;;;;;;;16.12;73.16;98007.31;5058017;28;19921;-48
2022/06/05 03:47:25;;;;;;;;;;;;;;;16.09;73.33;98014.31;5059045;28;19925;-51
2022/06/05 03:50:15;;;;;;;;;;;;;;;16.16;73.23;98020.00;5058262;28;20085;-53
2022/06/05 03:53:04;;;;;;;;;;;;;;;16.14;73.29;98030.53;5052283;28;20376;-53
2022/06/05 03:55:53;;;;;;;;;;;;;;;16.24;73.12;98024.56;5057191;28;19931;-47
2022/06/05 03:58:44;;;;;;;;;;;;;;;16.14;73.17;98026.97;5056200;28;20223;-48
2022/06/05 04:01:33;;;;;;;;;;;;;;;16.33;72.83;98032.66;5057850;28;19924;-52
2022/06/05 04:04:21;;;;;;;;;;;;;;;16.34;72.61;98041.66;5058138;28;20011;-51
2022/06/05 04:07:12;;;;;;;;;;;;;;;16.35;72.90;98043.25;5057434;28;20199;-50
2022/06/05 04:09:42;;;;;;;;;;;;;;;16.40;72.50;98041.06;5063157;28;20296;-53
2022/06/05 04:12:12;;;;;;;;;;;;;;;16.50;72.26;98035.09;5066421;28;19954;-52
2022/06/05 04:14:42;;;;;;;;;;;;;;;16.79;71.17;98029.69;5065127;28;19924;-53
2022/06/05 04:17:13;;;;;;;;;;;;;;;16.62;71.86;98023.31;5063875;28;19940;-53
2022/06/05 04:19:48;;;;;;;;;;;;;;;16.64;71.99;98018.28;5056221;28;19963;-52
2022/06/05 04:22:16;;;;;;;;;;;;;;;16.67;71.77;98019.50;5059928;28;20446;-53
2022/06/05 04:24:44;;;;;;;;;;;;;;;16.69;71.51;98012.56;5059492;28;19921;-54
2022/06/05 04:27:32;;;;;;;;;;;;;;;16.65;71.90;98011.63;5066321;28;19939;-54
2022/06/05 04:30:47;;;;;;;;;;;;;;;16.72;71.85;98033.84;5057944;28;19921;-53
2022/06/05 04:33:36;;;;;;;;;;;;;;;16.89;71.26;98026.47;5066283;28;20323;-54
2022/06/05 04:36:29;;;;;;;;;;;;;;;16.96;71.04;98023.91;5073922;28;19924;-52
2022/06/05 04:39:18;;;;;;;;;;;;;;;16.92;71.00;98025.75;5100034;28;19934;-54
2022/06/05 04:45:20;;;;;;;;;;;;;;;17.02;70.87;98012.31;5104371;28;19920;-54
2022/06/05 04:48:11;;;;;;;;;;;;;;;16.93;70.95;98017.16;5102988;28;19928;-52
2022/06/05 04:50:59;;;;;;;;;;;;;;;16.97;71.12;98031.78;5106641;28;20458;-53
2022/06/05 04:53:47;;;;;;;;;;;;;;;17.25;69.93;98030.94;5106593;28;20010;-53
2022/06/05 04:56:35;;;;;;;;;;;;;;;17.03;70.63;98029.56;5097256;28;19921;-53
2022/06/05 04:59:27;;;;;;;;;;;;;;;17.18;70.34;98036.25;5104164;28;19919;-52
2022/06/05 05:02:17;;;;;;;;;;;;;;;17.25;70.47;98026.25;5097417;28;20226;-54
2022/06/05 05:05:13;;;;;;;;;;;;;;;17.49;69.71;98030.00;5100112;28;19982;-53
2022/06/05 05:08:01;;;;;;;;;;;;;;;17.44;69.36;98000.84;5105797;28;19920;-52
2022/06/05 05:10:50;;;;;;;;;;;;;;;17.43;69.71;97977.28;5105332;28;19920;-54
2022/06/05 05:13:38;;;;;;;;;;;;;;;17.36;69.53;97965.31;5105667;28;19920;-53
2022/06/05 05:16:29;;;;;;;;;;;;;;;17.38;69.30;97949.28;5102052;28;19932;-54
2022/06/05 05:19:22;;;;;;;;;;;;;;;17.28;69.83;97937.69;5102248;28;20144;-49
2022/06/05 05:22:17;;;;;;;;;;;;;;;17.28;69.71;97937.69;5099899;28;19981;-54
2022/06/05 05:25:06;;;;;;;;;;;;;;;17.49;69.71;97947.59;5104934;28;19920;-47
2022/06/05 05:27:59;;;;;;;;;;;;;;;17.64;69.01;97960.53;5098933;28;20370;-47
2022/06/05 05:30:27;;;;;;;;;;;;;;;17.83;68.44;97946.06;5100005;28;19924;-52
2022/06/05 05:32:56;;;;;;;;;;;;;;;17.86;68.48;97950.84;5101663;28;19926;-53
2022/06/05 05:35:24;;;;;;;;;;;;;;;17.90;68.24;97946.25;5102998;28;19920;-53
2022/06/05 05:37:55;;;;;;;;;;;;;;;17.84;67.74;97941.38;5105685;28;19924;-47
2022/06/05 05:43:09;;;;;;;;;;;;;;;17.94;67.73;97927.84;5103964;28;19943;-54
2022/06/05 05:45:37;;;;;;;;;;;;;;;18.26;66.60;97919.50;5095625;28;19920;-54
2022/06/05 05:48:06;;;;;;;;;;;;;;;17.99;67.36;97916.59;5099586;28;19919;-51
2022/06/05 05:50:35;;;;;;;;;;;;;;;17.95;67.70;97925.91;5096945;28;19920;-54
2022/06/05 05:53:07;;;;;;;;;;;;;;;18.09;67.49;97936.44;5100063;28;20265;-50
2022/06/05 05:55:35;;;;;;;;;;;;;;;18.17;66.88;97949.97;5099628;28;19920;-54
2022/06/05 05:58:04;;;;;;;;;;;;;;;18.21;66.65;97950.81;5103774;28;20023;-54
2022/06/05 06:00:35;;;;;;;;;;;;;;;18.16;66.86;97953.06;5103376;28;19924;-52
2022/06/05 06:03:03;;;;;;;;;;;;;;;18.42;66.42;97957.94;5102365;28;20358;-52
2022/06/05 06:05:35;;;;;;;;;;;;;;;18.54;66.15;97947.59;5082070;28;20660;-53
2022/06/05 06:08:04;;;;;;;;;;;;;;;18.50;65.71;97951.44;5099620;28;20019;-53
2022/06/05 06:10:33;;;;;;;;;;;;;;;18.62;65.52;97943.03;5100973;28;20306;-54
2022/06/05 06:13:02;;;;;;;;;;;;;;;18.72;65.79;97953.47;5105153;28;19964;-54
2022/06/05 06:15:30;;;;;;;;;;;;;;;18.81;65.68;97956.81;5101403;28;19943;-52
2022/06/05 06:17:58;;;;;;;;;;;;;;;18.93;65.05;97958.59;5101317;28;20010;-54
2022/06/05 06:20:26;;;;;;;;;;;;;;;18.95;64.46;97950.75;5101843;28;20027;-55
2022/06/05 06:22:54;;;;;;;;;;;;;;;19.07;64.30;97967.13;5097384;28;19981;-54
2022/06/05 06:25:23;;;;;;;;;;;;;;;19.25;63.65;97963.88;5103485;28;19924;-46
2022/06/05 06:27:58;;;;;;;;;;;;;;;19.29;63.85;97979.31;5099311;28;19924;-54
2022/06/05 06:30:26;;;;;;;;;;;;;;;19.57;63.00;97967.16;5098189;28;19959;-53
2022/06/05 06:32:55;;;;;;;;;;;;;;;19.67;62.73;97963.03;5080484;28;20352;-54
2022/06/05 06:35:23;;;;;;;;;;;;;;;19.64;62.20;97959.03;5095623;28;19927;-47
2022/06/05 06:37:52;;;;;;;;;;;;;;;19.71;61.60;97944.56;5104451;28;19924;-55
2022/06/05 06:40:20;;;;;;;;;;;;;;;19.64;61.88;97945.25;5103277;28;19923;-54
2022/06/05 06:42:49;;;;;;;;;;;;;;;19.81;61.60;97949.44;5100968;28;19981;-54
2022/06/05 06:45:22;;;;;;;;;;;;;;;19.96;61.18;97951.25;5103205;28;19955;-52
2022/06/05 06:47:50;;;;;;;;;;;;;;;20.14;60.51;97966.09;5099450;28;19951;-54
2022/06/05 06:50:19;;;;;;;;;;;;;;;20.17;60.15;97969.25;5106412;28;20007;-54
2022/06/05 06:52:48;;;;;;;;;;;;;;;20.12;61.03;97973.13;5096852;28;19946;-54
2022/06/05 06:55:23;;;;;;;;;;;;;;;20.23;60.49;97976.84;5104737;28;20026;-54
2022/06/05 06:57:51;;;;;;;;;;;;;;;20.34;59.74;97980.53;5102606;28;19920;-52
2022/06/05 07:00:21;;;;;;;;;;;;;;;20.46;59.55;97973.22;5104154;28;19927;-54
2022/06/05 07:02:50;;;;;;;;;;;;;;;20.61;58.70;97973.03;5104597;28;20334;-54
2022/06/05 07:05:20;;;;;;;;;;;;;;;20.54;58.41;97966.63;5102662;28;19946;-53
2022/06/05 07:07:49;;;;;;;;;;;;;;;20.52;58.95;97964.25;5104176;28;19963;-53
2022/06/05 07:10:20;;;;;;;;;;;;;;;20.65;58.89;97951.00;5098042;28;19920;-55
2022/06/05 07:12:49;;;;;;;;;;;;;;;20.50;58.46;97943.72;5094290;28;19920;-52
2022/06/05 07:15:21;;;;;;;;;;;;;;;20.81;57.80;97937.75;5102123;28;20520;-55
2022/06/05 07:20:42;;;;;;;;;;;;;;;20.73;58.55;97960.16;5098619;28;20357;-55
2022/06/05 07:23:10;;;;;;;;;;;;;;;20.99;58.54;97971.09;5098332;28;20435;-54
2022/06/05 07:25:38;;;;;;;;;;;;;;;21.09;57.66;97975.13;5102269;28;20366;-54
2022/06/05 07:28:07;;;;;;;;;;;;;;;20.86;57.96;97978.84;5102386;28;19988;-54
2022/06/05 07:30:38;;;;;;;;;;;;;;;20.78;58.36;97977.19;5102385;28;19924;-50
2022/06/05 07:33:06;;;;;;;;;;;;;;;20.83;59.11;97990.66;5101812;28;20291;-54
2022/06/05 07:35:34;;;;;;;;;;;;;;;20.74;58.95;98003.94;5101279;28;19970;-54
2022/06/05 07:38:03;;;;;;;;;;;;;;;20.67;58.54;98010.19;5102034;28;19924;-53
2022/06/05 07:40:39;;;;;;;;;;;;;;;20.81;58.41;98026.13;5103414;28;19965;-55
2022/06/05 07:43:09;;;;;;;;;;;;;;;20.87;58.53;98029.34;5096036;28;19927;-55
2022/06/05 07:45:39;;;;;;;;;;;;;;;20.63;59.51;98038.91;5094395;28;19920;-56
2022/06/05 07:48:11;;;;;;;;;;;;;;;20.73;60.01;98043.78;5106643;28;20245;-56
2022/06/05 07:54:26;;;;;;;;;;;;;;;20.37;59.95;98057.06;5102277;28;19919;-54
2022/06/05 07:56:16;;;;;;;;;;;;;;;20.43;59.71;98085.13;5099543;28;20018;-55
2022/06/05 07:58:44;;;;;;;;;;;;;;;20.47;59.45;98110.06;5107701;28;19969;-54
2022/06/05 08:01:34;;;;;;;;;;;;;;;20.44;59.52;98132.81;5104008;28;19923;-55
2022/06/05 08:04:02;;;;;;;;;;;;;;;20.40;59.84;98139.09;5105985;28;19923;-52
2022/06/05 08:06:34;;;;;;;;;;;;;;;20.31;59.46;98157.88;5108092;28;20019;-53
2022/06/05 08:09:03;;;;;;;;;;;;;;;20.26;60.00;98155.44;5106138;28;20515;-52
2022/06/05 08:11:50;;;;;;;;;;;;;;;20.25;60.03;98151.06;5095969;28;20422;-53
2022/06/05 08:14:40;;;;;;;;;;;;;;;20.22;60.21;98153.78;5088017;28;19920;-52
2022/06/05 08:20:44;;;;;;;;;;;;;;;20.07;60.86;98164.56;5098131;28;20011;-53
2022/06/05 08:23:33;;;;;;;;;;;;;;;19.97;61.33;98162.41;5100941;28;19924;-54
2022/06/05 08:26:22;;;;;;;;;;;;;;;19.92;61.79;98165.50;5098695;28;20114;-54
2022/06/05 08:29:11;;;;;;;;;;;;;;;19.92;62.16;98167.44;5094302;28;19931;-54
2022/06/05 08:32:00;;;;;;;;;;;;;;;19.89;62.17;98155.97;5096355;28;20124;-52
2022/06/05 08:34:51;;;;;;;;;;;;;;;19.94;62.47;98165.13;5100251;28;20634;-51
2022/06/05 08:44:08;;;;;;;;;;;;;;;19.82;63.46;98155.84;5089546;28;20403;-51
2022/06/05 08:46:58;;;;;;;;;;;;;;;19.73;63.94;98146.22;5098910;28;19924;-52
2022/06/05 08:49:47;;;;;;;;;;;;;;;19.76;64.01;98131.69;5095080;28;20322;-55
2022/06/05 08:52:39;;;;;;;;;;;;;;;19.75;64.47;98125.38;5095702;28;19932;-52
2022/06/05 08:55:29;;;;;;;;;;;;;;;19.82;64.74;98109.00;5094631;28;19971;-51
2022/06/05 08:58:19;;;;;;;;;;;;;;;19.82;64.52;98103.47;5091565;28;19931;-54
2022/06/05 09:01:13;;;;;;;;;;;;;;;19.94;63.05;98085.16;5094529;28;20387;-52
2022/06/05 09:04:03;;;;;;;;;;;;;;;19.82;63.40;98053.84;5092236;28;19925;-53
2022/06/05 09:06:52;;;;;;;;;;;;;;;19.77;62.84;98006.50;5093486;28;19959;-55
2022/06/05 09:09:44;;;;;;;;;;;;;;;19.84;62.70;97990.84;5096961;28;19934;-52
2022/06/05 09:12:37;;;;;;;;;;;;;;;19.59;63.43;97968.41;5097269;28;20006;-53
2022/06/05 09:15:26;;;;;;;;;;;;;;;19.62;63.67;97951.16;5093380;28;20230;-55
2022/06/05 09:18:16;;;;;;;;;;;;;;;19.46;64.27;97947.72;5085958;28;19934;-54
2022/06/05 09:21:31;;;;;;;;;;;;;;;19.67;63.83;97947.28;5084370;28;19928;-54
2022/06/05 09:24:23;;;;;;;;;;;;;;;19.51;64.59;97966.69;5088617;28;19954;-52
2022/06/05 09:27:16;;;;;;;;;;;;;;;19.58;64.95;97950.25;5086794;28;19926;-53
2022/06/05 09:30:06;;;;;;;;;;;;;;;19.59;65.02;97951.88;5087779;28;20462;-50
2022/06/05 09:33:05;;;;;;;;;;;;;;;19.57;66.97;97958.91;5086389;28;20024;-52
2022/06/05 09:39:12;;;;;;;;;;;;;;;19.38;70.17;97968.81;5054071;28;19932;-51
2022/06/05 09:42:08;;;;;;;;;;;;;;;19.31;72.03;97952.19;5046567;28;19921;-54
2022/06/05 09:45:02;;;;;;;;;;;;;;;19.23;72.66;97944.97;5052937;28;19925;-51
2022/06/05 09:47:54;;;;;;;;;;;;;;;19.08;74.03;97951.38;5055289;28;19932;-54
2022/06/05 09:54:24;;;;;;;;;;;;;;;18.78;73.78;97976.00;5054539;28;19933;-53
2022/06/05 10:00:33;;;;;;;;;;;;;;;18.73;74.58;97970.78;5045828;28;19925;-50
2022/06/05 10:03:25;;;;;;;;;;;;;;;18.84;74.70;97977.28;5056779;28;20494;-54
2022/06/05 10:06:18;;;;;;;;;;;;;;;18.86;75.38;97979.69;5056831;28;19929;-50
2022/06/05 10:09:12;;;;;;;;;;;;;;;18.82;75.16;97980.41;5048510;28;19925;-52
2022/06/05 10:12:01;;;;;;;;;;;;;;;18.82;75.10;97985.13;5057039;28;20009;-54
2022/06/05 10:14:53;;;;;;;;;;;;;;;18.84;74.96;97989.09;5054576;28;19963;-51
2022/06/05 10:17:50;;;;;;;;;;;;;;;18.96;75.29;97976.31;5050949;28;19931;-50
2022/06/05 10:20:53;;;;;;;;;;;;;;;19.04;75.48;97980.81;5051617;28;20388;-52
2022/06/05 10:23:50;;;;;;;;;;;;;;;19.02;75.37;97980.41;5054306;28;20395;-52
2022/06/05 10:26:39;;;;;;;;;;;;;;;18.94;74.64;97986.91;5056942;28;19928;-54
2022/06/05 10:29:30;;;;;;;;;;;;;;;19.26;75.42;97984.75;5053357;28;20361;-54
2022/06/05 10:32:20;;;;;;;;;;;;;;;19.38;75.25;97974.31;5054367;28;19931;-50
2022/06/05 10:35:14;;;;;;;;;;;;;;;19.16;75.86;97966.88;5048560;28;19920;-53
2022/06/05 10:38:07;;;;;;;;;;;;;;;19.17;75.46;97971.19;5070923;28;19920;-53
2022/06/05 10:41:00;;;;;;;;;;;;;;;19.23;75.55;97955.16;5078857;28;19920;-53
2022/06/05 10:43:50;;;;;;;;;;;;;;;19.23;74.90;97933.97;5077781;28;20312;-53
2022/06/05 10:46:39;;;;;;;;;;;;;;;19.26;75.48;97933.19;5085709;28;19919;-52
2022/06/05 10:49:29;;;;;;;;;;;;;;;19.41;74.82;97922.44;5095827;28;19924;-53
2022/06/05 10:52:21;;;;;;;;;;;;;;;19.61;72.50;97915.69;5094297;28;20096;-52
2022/06/05 10:55:21;;;;;;;;;;;;;;;19.55;72.14;97906.94;5089639;28;20658;-54
2022/06/05 10:58:13;;;;;;;;;;;;;;;19.61;72.44;97893.66;5090037;28;19923;-52
2022/06/05 11:01:06;;;;;;;;;;;;;;;19.42;72.87;97846.88;5091277;28;19931;-52
2022/06/05 11:04:25;;;;;;;;;;;;;;;19.51;73.59;97779.31;5089929;28;19919;-50
2022/06/05 11:07:16;;;;;;;;;;;;;;;19.37;75.00;97746.84;5089969;28;20295;-53
2022/06/05 11:10:10;;;;;;;;;;;;;;;19.36;75.72;97783.84;5093423;28;19931;-52
2022/06/05 11:16:33;;;;;;;;;;;;;;;19.40;76.85;97838.19;5071464;28;20391;-52
2022/06/05 11:19:24;;;;;;;;;;;;;;;19.52;76.37;97841.53;5094315;28;20379;-51
2022/06/05 11:22:13;;;;;;;;;;;;;;;19.69;76.26;97823.66;5092582;28;19932;-51
2022/06/05 11:25:12;;;;;;;;;;;;;;;19.75;75.67;97821.38;5097280;28;19933;-51
2022/06/05 11:28:03;;;;;;;;;;;;;;;19.73;73.85;97824.53;5094551;28;20348;-54
2022/06/05 11:30:59;;;;;;;;;;;;;;;19.62;73.05;97813.34;5100675;28;19920;-53
2022/06/05 11:33:51;;;;;;;;;;;;;;;19.82;74.00;97810.47;5102903;28;19943;-53
2022/06/05 11:37:04;;;;;;;;;;;;;;;19.94;72.91;97823.22;5098761;28;19963;-49
2022/06/05 11:39:54;;;;;;;;;;;;;;;20.11;73.58;97806.88;5092161;28;20431;-48
2022/06/05 11:42:47;;;;;;;;;;;;;;;20.46;71.63;97807.63;5098504;28;20115;-53
2022/06/05 11:45:42;;;;;;;;;;;;;;;20.70;72.56;97815.38;5094986;28;19923;-53
2022/06/05 11:48:31;;;;;;;;;;;;;;;20.74;72.03;97810.69;5099097;28;19927;-53
2022/06/05 11:51:21;;;;;;;;;;;;;;;20.71;70.98;97805.13;5099369;28;20053;-52
2022/06/05 12:00:46;;;;;;;;;;;;;;;20.82;68.00;97806.81;5098074;28;19924;-54
2022/06/05 12:03:35;;;;;;;;;;;;;;;20.91;68.19;97812.81;5101672;28;20002;-52
2022/06/05 12:06:26;;;;;;;;;;;;;;;20.97;68.38;97815.22;5098034;28;20446;-54
2022/06/05 12:09:40;;;;;;;;;;;;;;;20.91;67.92;97815.56;5101080;28;19920;-55
2022/06/05 12:12:29;;;;;;;;;;;;;;;20.98;68.06;97809.31;5098059;28;20137;-54
2022/06/05 12:15:20;;;;;;;;;;;;;;;21.17;68.26;97808.28;5094791;28;20012;-54
2022/06/05 12:18:11;;;;;;;;;;;;;;;21.04;67.00;97810.56;5093169;28;19920;-53
2022/06/05 12:21:03;;;;;;;;;;;;;;;20.93;66.57;97804.13;5100144;28;19976;-53
2022/06/05 12:23:57;;;;;;;;;;;;;;;21.13;65.63;97805.47;5101863;28;19919;-55
2022/06/05 12:26:53;;;;;;;;;;;;;;;21.16;65.80;97801.16;5095064;28;19942;-52
2022/06/05 12:29:43;;;;;;;;;;;;;;;21.17;65.79;97797.22;5094699;28;19924;-53
2022/06/05 12:32:36;;;;;;;;;;;;;;;21.31;65.97;97799.34;5098399;28;20057;-51
2022/06/05 12:35:27;;;;;;;;;;;;;;;21.55;65.33;97797.88;5099052;28;19973;-53
2022/06/05 12:38:19;;;;;;;;;;;;;;;21.56;66.95;97797.50;5102403;28;19928;-52
2022/06/05 12:41:13;;;;;;;;;;;;;;;21.79;65.69;97797.22;5092134;28;20236;-55
2022/06/05 12:44:02;;;;;;;;;;;;;;;;;;5098644;28;19949;-53
2022/06/05 12:46:56;;;;;;;;;;;;;;;22.01;65.01;97808.38;5098256;28;20271;-53
2022/06/05 12:49:52;;;;;;;;;;;;;;;22.07;63.21;97801.28;5099593;28;19985;-55
2022/06/05 12:52:43;;;;;;;;;;;;;;;21.87;62.91;97793.31;5098783;28;19928;-52
2022/06/05 12:55:33;;;;;;;;;;;;;;;22.03;64.51;97790.19;5090942;28;19932;-54
2022/06/05 12:58:21;;;;;;;;;;;;;;;22.14;63.37;97784.72;5099104;28;19965;-52
2022/06/05 13:01:12;;;;;;;;;;;;;;;22.25;63.84;97793.06;5096419;28;19935;-53
2022/06/05 13:04:02;;;;;;;;;;;;;;;22.29;62.84;97794.66;5095759;28;20335;-55
2022/06/05 13:06:55;;;;;;;;;;;;;;;22.24;63.64;97800.56;5102185;28;19920;-55
2022/06/05 13:09:47;;;;;;;;;;;;;;;22.29;62.32;97808.50;5079775;28;20403;-54
2022/06/05 13:12:36;;;;;;;;;;;;;;;22.35;63.14;97811.66;5094731;28;19924;-53
2022/06/05 13:15:26;;;;;;;;;;;;;;;22.46;61.98;97812.50;5088443;28;19920;-56
2022/06/05 13:21:36;;;;;;;;;;;;;;;22.72;58.81;97816.88;5089635;28;19942;-55
2022/06/05 13:24:28;;;;;;;;;;;;;;;22.70;58.00;97808.19;5100117;28;20174;-53
2022/06/05 13:27:20;;;;;;;;;;;;;;;22.64;57.40;97812.53;5095984;28;19920;-53
2022/06/05 13:30:11;;;;;;;;;;;;;;;22.52;58.33;97804.59;5086867;28;20009;-52
2022/06/05 13:33:01;;;;;;;;;;;;;;;22.49;57.38;97803.41;5099914;28;19927;-55
2022/06/05 13:35:55;;;;;;;;;;;;;;;22.35;57.76;97809.69;5095040;28;19943;-48
2022/06/05 13:38:48;;;;;;;;;;;;;;;22.26;58.18;97820.34;5051858;28;20228;-55
2022/06/05 13:41:38;;;;;;;;;;;;;;;22.18;57.80;97825.06;5050784;28;19925;-52
2022/06/05 13:44:31;;;;;;;;;;;;;;;22.21;58.23;97817.94;5054687;28;20213;-54
2022/06/05 13:47:27;;;;;;;;;;;;;;;21.98;58.51;97832.06;5048804;28;19925;-52
2022/06/05 13:50:23;;;;;;;;;;;;;;;21.93;59.06;97827.69;5058484;28;20388;-55
2022/06/05 13:53:13;;;;;;;;;;;;;;;21.86;59.72;97830.44;5057772;28;19924;-52
2022/06/05 13:59:14;;;;;;;;;;;;;;;21.55;62.50;97833.81;5057004;28;19928;-52
2022/06/05 14:02:31;;;;;;;;;;;;;;;21.44;65.12;97836.50;5051675;28;19935;-51
2022/06/05 14:05:22;;;;;;;;;;;;;;;21.32;66.11;97826.56;5057325;28;19932;-55
2022/06/05 14:08:11;;;;;;;;;;;;;;;21.13;67.07;97811.00;5059197;28;20011;-53
2022/06/05 14:11:09;;;;;;;;;;;;;;;21.13;67.63;97799.94;5056565;28;19920;-55
2022/06/05 14:13:58;;;;;;;;;;;;;;;21.02;68.39;97803.81;5045541;28;20018;-50
2022/06/05 14:20:32;;;;;;;;;;;;;;;20.95;69.06;97804.56;5063347;28;20400;-53
2022/06/05 14:23:24;;;;;;;;;;;;;;;20.80;69.91;97791.81;5067334;28;20311;-51
2022/06/05 14:26:13;;;;;;;;;;;;;;;21.05;68.04;97794.78;5059544;28;20356;-53
2022/06/05 14:29:26;;;;;;;;;;;;;;;20.75;68.41;97789.41;5054671;28;19920;-54
2022/06/05 14:32:39;;;;;;;;;;;;;;;20.64;68.61;97792.06;5062368;28;19920;-53
2022/06/05 14:35:37;;;;;;;;;;;;;;;20.50;70.08;97797.44;5058676;28;19939;-53
2022/06/05 14:38:28;;;;;;;;;;;;;;;20.41;71.15;97787.50;5074997;28;20345;-54
2022/06/05 14:41:17;;;;;;;;;;;;;;;20.47;69.98;97778.91;5069658;28;19928;-53
2022/06/05 14:44:11;;;;;;;;;;;;;;;20.55;69.97;97775.03;5093812;28;19924;-52
2022/06/05 14:47:02;;;;;;;;;;;;;;;20.87;69.30;97756.75;5083925;28;19927;-53
2022/06/05 14:50:15;;;;;;;;;;;;;;;20.59;69.75;97753.78;5099140;28;19974;-51
2022/06/05 14:53:06;;;;;;;;;;;;;;;20.49;69.45;97754.47;5095531;28;20185;-51
2022/06/05 14:59:03;;;;;;;;;;;;;;;20.63;70.53;97766.44;5103288;28;19994;-53
2022/06/05 15:01:54;;;;;;;;;;;;;;;20.59;70.85;97773.09;5102943;28;20265;-52
2022/06/05 15:04:44;;;;;;;;;;;;;;;20.67;70.48;97770.03;5098400;28;20143;-51
2022/06/05 15:07:34;;;;;;;;;;;;;;;20.67;70.88;97777.50;5102244;28;20345;-51
2022/06/05 15:10:28;;;;;;;;;;;;;;;20.70;70.24;97782.25;5098199;28;20572;-48
2022/06/05 15:13:19;;;;;;;;;;;;;;;20.76;70.84;97788.22;5096770;28;20290;-52
2022/06/05 15:16:11;;;;;;;;;;;;;;;20.83;70.23;97794.63;5091030;28;19978;-51
2022/06/05 15:19:00;;;;;;;;;;;;;;;20.79;69.59;97791.03;5101434;28;20271;-53
2022/06/05 15:21:49;;;;;;;;;;;;;;;20.90;69.77;97808.47;5104604;28;20188;-53
2022/06/05 15:24:38;;;;;;;;;;;;;;;20.65;69.83;97805.47;5101317;28;19970;-53
2022/06/05 15:27:53;;;;;;;;;;;;;;;20.58;68.94;97829.47;5101416;28;20347;-53
2022/06/05 15:30:46;;;;;;;;;;;;;;;20.69;69.01;97835.88;5098541;28;19942;-53
2022/06/05 15:33:36;;;;;;;;;;;;;;;20.71;68.70;97827.22;5100518;28;19924;-50
2022/06/05 15:36:27;;;;;;;;;;;;;;;20.71;68.51;97822.47;5099755;28;20048;-52